Flight Track Log - Related Links

Times and Time Zones

All times are in EDT time to prevent confusion due to time zone crossing. See the UPS1331 flight status page for this flight to view local times or setup timezone preferences in your user account.

Time Position Orientation Groundspeed Altitude Reporting Facility
EDT Latitude Longitude Course Direction KTS MPH feet Rate Location/Type
Fri 10:29:32 PM 25.7981 -80.2744 81° East 161 185 900  Level Miami Center
Fri 10:30:15 PM 25.8033 -80.2353 81° East 204 235 2,100 1,663 Climbing Miami Center
Fri 10:30:55 PM 25.8125 -80.1919 77° East 223 257 3,200 2,121 Climbing Miami Center
Fri 10:31:54 PM 25.8533 -80.1400 49° Northeast 252 290 5,600 2,672 Climbing Miami Center
Fri 10:32:54 PM 25.9367 -80.1514 353° North 223 257 8,500 2,579 Climbing Miami Center
Fri 10:33:55 PM 25.9939 -80.2108 317° Northwest 239 275 10,800 2,521 Climbing Miami Center
Fri 10:34:53 PM 26.0181 -80.3386 282° West 276 318 13,500 2,924 Climbing Miami Center
Fri 10:35:54 PM 26.0444 -80.4550 284° West 340 391 16,600 3,000 Climbing Miami Center
Fri 10:36:53 PM 26.0747 -80.5783 285° West 380 437 19,500 2,678 Climbing Miami Center
Fri 10:37:55 PM 26.1389 -80.6844 304° West 411 473 22,000 2,430 Climbing Miami Center
Fri 10:38:54 PM 26.2303 -80.7800 317° Northwest 424 488 24,400 2,218 Climbing Miami Center
Fri 10:39:54 PM 26.3181 -80.8572 322° Northwest 439 505 26,400 2,000 Climbing Miami Center
Fri 10:40:54 PM 26.4456 -80.9333 332° Northwest 464 534 28,400 2,150 Climbing Miami Center
Fri 10:41:54 PM 26.5669 -80.9978 335° Northwest 479 551 30,700 2,250 Climbing Miami Center
Fri 10:42:54 PM 26.6839 -81.0647 333° Northwest 479 551 32,900 2,218 Climbing Miami Center
Fri 10:43:53 PM 26.7969 -81.1294 333° Northwest 468 539 35,100 1,950 Climbing Miami Center
Fri 10:44:54 PM 26.8975 -81.1889 332° Northwest 455 524 36,800 1,450 Climbing Miami Center
Fri 10:45:53 PM 27.0083 -81.2511 333° Northwest 443 510 38,000 590 Climbing Miami Center
Fri 10:46:56 PM 27.1253 -81.3164 334° Northwest 443 510 38,000  Level Miami Center
Fri 10:47:54 PM 27.2339 -81.3811 332° Northwest 438 504 38,000  Level Miami Center
Fri 10:48:54 PM 27.3447 -81.4439 333° Northwest 448 516 38,000  Level Miami Center
Fri 10:49:54 PM 27.4450 -81.5019 333° Northwest 448 516 38,000  Level Miami Center
Fri 10:50:54 PM 27.5578 -81.5672 333° Northwest 448 516 38,000  Level Miami Center
Fri 10:51:56 PM 27.6828 -81.6403 333° Northwest 443 510 38,000  Level Miami Center
Fri 10:54:07 PM 27.9239 -81.7722 334° Northwest 459 528 38,000  Level Jacksonville Center
Fri 10:55:07 PM 28.0372 -81.8392 332° Northwest 454 522 38,000  Level Jacksonville Center
Fri 10:56:07 PM 28.1483 -81.9064 332° Northwest 454 522 38,000  Level Jacksonville Center
Fri 10:57:06 PM 28.2550 -81.9689 333° Northwest 449 517 38,000  Level Jacksonville Center
Fri 10:58:07 PM 28.3683 -82.0339 333° Northwest 449 517 38,000  Level Jacksonville Center
Fri 10:59:07 PM 28.4814 -82.0850 338° Northwest 439 505 38,000  Level Jacksonville Center
Fri 11:00:06 PM 28.5983 -82.1336 340° North 439 505 38,000  Level Jacksonville Center
Fri 11:01:07 PM 28.7136 -82.1847 339° North 439 505 38,000  Level Jacksonville Center
Fri 11:02:06 PM 28.8286 -82.2314 340° North 434 499 38,000  Level Jacksonville Center
Fri 11:03:06 PM 28.9414 -82.2828 338° Northwest 434 499 38,000  Level Jacksonville Center
Fri 11:04:07 PM 29.0544 -82.3319 339° North 429 494 38,000  Level Jacksonville Center
Fri 11:05:07 PM 29.1675 -82.3814 339° North 434 499 38,000  Level Jacksonville Center
Fri 11:06:07 PM 29.2825 -82.4331 339° North 434 499 38,000  Level Jacksonville Center
Fri 11:07:07 PM 29.3975 -82.4825 339° North 434 499 38,000  Level Jacksonville Center
Fri 11:08:07 PM 29.5122 -82.5297 340° North 434 499 38,000  Level Jacksonville Center
Fri 11:09:07 PM 29.6314 -82.5819 339° North 434 499 38,000  Level Jacksonville Center
Fri 11:10:07 PM 29.7611 -82.6461 337° Northwest 447 514 38,000  Level Jacksonville Center
Fri 11:11:07 PM 29.8781 -82.6961 340° North 452 520 38,000  Level Jacksonville Center
Fri 11:12:07 PM 29.9931 -82.7511 338° Northwest 452 520 38,000  Level Jacksonville Center
Fri 11:13:07 PM 30.1142 -82.7989 341° North 452 520 38,000  Level Jacksonville Center
Fri 11:14:07 PM 30.2311 -82.8517 339° North 452 520 38,000  Level Jacksonville Center
Fri 11:15:06 PM 30.3500 -82.9047 339° North 452 520 38,000  Level Jacksonville Center
Fri 11:16:07 PM 30.4647 -82.9575 338° Northwest 452 520 38,000  Level Jacksonville Center
Fri 11:17:07 PM 30.5839 -83.0083 340° North 452 520 38,000  Level Jacksonville Center
Fri 11:18:07 PM 30.7006 -83.0617 339° North 452 520 38,000  Level Jacksonville Center
Fri 11:19:07 PM 30.8175 -83.1150 339° North 452 520 38,000  Level Jacksonville Center
Fri 11:20:07 PM 30.9303 -83.1686 338° Northwest 442 509 38,000  Level Jacksonville Center
Fri 11:21:07 PM 31.0469 -83.2222 339° North 442 509 38,000  Level Jacksonville Center
Fri 11:22:07 PM 31.1617 -83.2736 339° North 442 509 38,000  Level Jacksonville Center
Fri 11:24:14 PM 31.3942 -83.3797 339° North 442 509 38,000  Level Atlanta Center
Fri 11:25:14 PM 31.5197 -83.4372 339° North 442 509 38,000  Level Atlanta Center
Fri 11:26:14 PM 31.6347 -83.4900 339° North 442 509 38,000  Level Atlanta Center
Fri 11:27:14 PM 31.7519 -83.5406 340° North 437 503 38,000  Level Atlanta Center
Fri 11:28:14 PM 31.8689 -83.5961 338° Northwest 442 509 38,000  Level Atlanta Center
Fri 11:29:14 PM 31.9819 -83.6519 337° Northwest 442 509 38,000  Level Atlanta Center
Fri 11:30:14 PM 32.0947 -83.7056 338° Northwest 442 509 38,000  Level Atlanta Center
Fri 11:31:14 PM 32.2117 -83.7589 339° North 436 502 38,000  Level Atlanta Center
Fri 11:32:14 PM 32.3267 -83.8128 338° Northwest 436 502 38,000  Level Atlanta Center
Fri 11:33:14 PM 32.4394 -83.8667 338° Northwest 436 502 38,000  Level Atlanta Center
Fri 11:34:14 PM 32.5544 -83.9206 338° Northwest 436 502 38,000  Level Atlanta Center
Fri 11:35:14 PM 32.6692 -83.9772 337° Northwest 436 502 38,000  Level Atlanta Center
Fri 11:36:14 PM 32.7861 -84.0339 338° Northwest 436 502 38,000  Level Atlanta Center
Fri 11:37:14 PM 32.9031 -84.0858 340° North 441 507 38,000  Level Atlanta Center
Fri 11:38:14 PM 33.0178 -84.1453 337° Northwest 441 507 38,000  Level Atlanta Center
Fri 11:39:14 PM 33.1303 -84.2000 338° Northwest 441 507 38,000  Level Atlanta Center
Fri 11:40:14 PM 33.2472 -84.2550 339° North 441 507 38,000  Level Atlanta Center
Fri 11:41:14 PM 33.3639 -84.3100 339° North 441 507 38,000  Level Atlanta Center
Fri 11:42:14 PM 33.4808 -84.3675 338° Northwest 448 516 38,000  Level Atlanta Center
Fri 11:43:14 PM 33.5828 -84.4178 338° Northwest 448 516 38,000  Level Atlanta Center
Fri 11:44:14 PM 33.7017 -84.4583 344° North 448 516 38,000  Level Atlanta Center
Fri 11:45:14 PM 33.8269 -84.4864 349° North 448 516 38,000  Level Atlanta Center
Fri 11:46:14 PM 33.9542 -84.5172 349° North 448 516 38,000  Level Atlanta Center
Fri 11:47:14 PM 34.0769 -84.5478 348° North 448 516 38,000  Level Atlanta Center
Fri 11:48:14 PM 34.2167 -84.5814 349° North 454 522 38,000  Level Atlanta Center
Fri 11:49:14 PM 34.3397 -84.6125 348° North 449 517 38,000 -450 Level Atlanta Center
Fri 11:50:14 PM 34.4628 -84.6433 348° North 444 511 37,100 -500 Descending Atlanta Center
Fri 11:51:14 PM 34.5900 -84.6722 349° North 459 528 37,000 -50 Descending Atlanta Center
Fri 11:52:14 PM 34.6961 -84.7058 345° North 457 526 37,000  Level Atlanta Center
Fri 11:53:14 PM 34.8233 -84.7372 349° North 457 526 37,000  Level Atlanta Center
Fri 11:54:14 PM 34.9525 -84.7686 349° North 457 526 37,000  Level Atlanta Center
Fri 11:55:14 PM 35.0794 -84.8028 348° North 462 532 37,000  Level Atlanta Center
Fri 11:56:14 PM 35.2086 -84.8344 349° North 467 537 37,000  Level Atlanta Center
Fri 11:57:14 PM 35.3378 -84.8661 349° North 472 543 37,000  Level Atlanta Center
Fri 11:58:14 PM 35.4650 -84.9006 348° North 467 537 37,000  Level Atlanta Center
Fri 11:59:14 PM 35.5900 -84.9325 348° North 467 537 37,000 -638 Level Atlanta Center
Sat 12:00:54 AM 35.8100 -84.9869 349° North 471 542 35,300 -1,081 Descending Indianapolis Center
Sat 12:01:55 AM 35.9406 -85.0167 350° North 474 545 34,100 -1,033 Descending Indianapolis Center
Sat 12:02:56 AM 36.0608 -85.0439 350° North 470 541 33,200 -934 Descending Indianapolis Center
Sat 12:03:57 AM 36.1886 -85.0739 349° North 467 537 32,200 -1,041 Descending Indianapolis Center
Sat 12:04:57 AM 36.3161 -85.1039 349° North 465 535 31,100 -1,041 Descending Indianapolis Center
Sat 12:05:58 AM 36.4436 -85.1333 349° North 464 534 30,100 -984 Descending Indianapolis Center
Sat 12:06:59 AM 36.5933 -85.1625 351° North 451 519 29,100 -1,377 Descending Indianapolis Center
Sat 12:08:00 AM 36.7131 -85.1419 North 433 498 27,300 -1,820 Descending Indianapolis Center
Sat 12:09:01 AM 36.8294 -85.1186 North 424 488 25,400 -1,820 Descending Indianapolis Center
Sat 12:10:02 AM 36.9408 -85.0961 North 409 471 23,600 -1,785 Descending Indianapolis Center
Sat 12:11:02 AM 37.0503 -85.0744 North 403 464 21,800 -2,579 Descending Indianapolis Center
Sat 12:12:03 AM 37.1622 -85.0517 North 408 470 18,400 -2,459 Descending Indianapolis Center
Sat 12:13:04 AM 37.2817 -85.0275 North 429 494 16,800 -1,328 Descending Indianapolis Center
Sat 12:14:05 AM 37.4000 -85.0039 North 429 494 15,700 -1,426 Descending Indianapolis Center
Sat 12:15:06 AM 37.5161 -84.9800 North 423 487 13,900 -2,132 Descending Indianapolis Center
Sat 12:16:06 AM 37.6292 -84.9625 North 412 474 11,400 -1,785 Descending Indianapolis Center
Sat 12:17:07 AM 37.7144 -85.0383 325° Northwest 383 441 10,300 -689 Descending Indianapolis Center
Sat 12:18:08 AM 37.7836 -85.1311 313° West 362 417 10,000 -639 Descending Indianapolis Center
Sat 12:19:09 AM 37.8072 -85.2300 287° West 298 343 9,000 -1,388 Descending Indianapolis Center
Sat 12:20:09 AM 37.8306 -85.3211 288° West 276 318 7,200 -1,438 Descending Indianapolis Center
Sat 12:21:10 AM 37.8608 -85.4050 295° West 276 318 6,100 -1,082 Descending Indianapolis Center
Sat 12:22:11 AM 37.9000 -85.5061 296° West 266 306 5,000 -595 Descending Indianapolis Center
Sat 12:23:11 AM 37.9303 -85.5814 297° West 247 284 4,900 -496 Descending Indianapolis Center
Sat 12:24:12 AM 37.9594 -85.6500 298° West 228 262 4,000 -787 Descending Indianapolis Center
Sat 12:25:13 AM 38.0094 -85.6931 326° Northwest 217 250 3,300 -843 Descending Indianapolis Center
Sat 12:26:13 AM 38.0631 -85.7078 348° North 206 237 2,300 -744 Descending Indianapolis Center
Sat 12:27:14 AM 38.1039 -85.7203 346° North 194 223 1,800 -492 Descending Indianapolis Center
Sat 12:29:00 AM 38.1741 -85.7365 345° North  Level Estimated
Sat 12:36:00 AM 38.1741 -85.7365 208° Southwest  Level Estimated

Login

Don't have an account? Register now (free) for customized features, flight alerts, and more!